Time;durP1;ratioP1;P1;durP2;ratioP2;P2;SDS_P1;SDS_P2;PMS_P1;PMS_P2;Temp;Humidity;BMP_temperature;BMP_pressure;BME280_temperature;BME280_humidity;BME280_pressure;Samples;Min_cycle;Max_cycle;Signal;HPM_P1;HPM_P2
2021/03/24 00:01:00;;;;;;;47.95;19.83;;;3.00;99.90;;;;;;5042192;28;20475;-91
2021/03/24 00:03:26;;;;;;;49.92;18.55;;;5.80;99.90;;;;;;5042417;28;20034;-90
2021/03/24 00:05:52;;;;;;;47.78;18.30;;;4.80;99.90;;;;;;5043364;28;20033;-88
2021/03/24 00:08:22;;;;;;;49.72;19.42;;;4.80;99.90;;;;;;5060483;28;20097;-89
2021/03/24 00:10:50;;;;;;;47.40;19.73;;;3.40;99.90;;;;;;5042670;28;20013;-89
2021/03/24 00:13:16;;;;;;;58.92;19.90;;;3.60;99.90;;;;;;5042850;28;20030;-89
2021/03/24 00:15:42;;;;;;;49.78;20.15;;;2.70;99.90;;;;;;5058749;28;20081;-89
2021/03/24 00:18:11;;;;;;;51.53;20.50;;;6.30;99.90;;;;;;5041528;28;20029;-89
2021/03/24 00:20:39;;;;;;;51.97;20.00;;;3.90;99.90;;;;;;5041401;28;20021;-91
2021/03/24 00:23:06;;;;;;;56.28;20.98;;;3.30;99.90;;;;;;5042518;28;20005;-89
2021/03/24 00:25:32;;;;;;;54.30;21.63;;;3.40;99.90;;;;;;5060305;28;20069;-89
2021/03/24 00:27:58;;;;;;;51.83;21.85;;;6.20;99.90;;;;;;5043565;28;20067;-89
2021/03/24 00:30:27;;;;;;;55.08;21.27;;;3.00;99.90;;;;;;5043338;28;20025;-89
2021/03/24 00:32:52;;;;;;;;;;;3.60;99.90;;;;;;5043623;28;20030;-89
2021/03/24 00:35:18;;;;;;;49.60;19.95;;;;;;;;;;5042782;28;19900;-89
2021/03/24 00:37:44;;;;;;;55.35;20.23;;;3.50;99.90;;;;;;5043266;28;20040;-90
2021/03/24 00:40:14;;;;;;;57.35;21.05;;;4.20;99.90;;;;;;5042872;28;20020;-90
2021/03/24 00:42:40;;;;;;;52.55;21.00;;;3.40;99.90;;;;;;5060477;28;20033;-88
2021/03/24 00:45:07;;;;;;;49.60;19.98;;;4.50;99.90;;;;;;5043573;28;20029;-90
2021/03/24 00:47:33;;;;;;;66.70;20.92;;;3.40;99.90;;;;;;5043426;28;20025;-90
2021/03/24 00:49:59;;;;;;;56.33;20.80;;;3.10;99.90;;;;;;5043359;28;20013;-91
2021/03/24 00:52:25;;;;;;;55.65;22.10;;;1.70;99.90;;;;;;5043410;28;20014;-90
2021/03/24 00:54:50;;;;;;;58.92;22.85;;;5.20;99.90;;;;;;5043380;28;20040;-92
2021/03/24 00:57:19;;;;;;;53.63;20.00;;;2.70;99.90;;;;;;5043184;28;20025;-90
2021/03/24 00:59:44;;;;;;;56.55;21.85;;;5.90;99.90;;;;;;5043184;28;20013;-89
2021/03/24 01:02:13;;;;;;;53.70;22.30;;;4.90;99.90;;;;;;5043060;28;20056;-88
2021/03/24 01:04:39;;;;;;;58.40;22.45;;;2.10;99.90;;;;;;5043157;28;20041;-90
2021/03/24 01:07:09;;;;;;;63.03;24.17;;;3.30;99.90;;;;;;5043205;28;20052;-89
2021/03/24 01:09:38;;;;;;;59.03;23.17;;;3.30;99.90;;;;;;5042928;28;20015;-90
2021/03/24 01:12:08;;;;;;;57.13;22.48;;;2.40;99.90;;;;;;5059814;28;20018;-89
2021/03/24 01:14:33;;;;;;;70.28;24.98;;;3.30;99.90;;;;;;5059976;28;20010;-90
2021/03/24 01:16:59;;;;;;;61.13;22.80;;;2.50;99.90;;;;;;5042931;28;20028;-88
2021/03/24 01:19:25;;;;;;;56.13;22.27;;;3.10;99.90;;;;;;5042846;28;20024;-91
2021/03/24 01:21:50;;;;;;;59.67;22.35;;;2.20;99.90;;;;;;5042923;28;20005;-87
2021/03/24 01:24:16;;;;;;;66.70;24.10;;;4.50;99.90;;;;;;5042790;28;20016;-89
2021/03/24 01:26:42;;;;;;;66.35;25.33;;;6.40;99.90;;;;;;5070196;23;20046;-75
2021/03/24 01:29:08;;;;;;;60.65;22.85;;;3.20;99.90;;;;;;5010564;28;20038;-73
2021/03/24 01:31:34;;;;;;;63.53;24.80;;;;;;;;;;4995333;28;20372;-73
2021/03/24 01:34:01;;;;;;;83.90;25.63;;;3.20;99.90;;;;;;4995349;28;20157;-73
2021/03/24 01:36:28;;;;;;;64.80;23.80;;;3.40;99.90;;;;;;4999974;28;20050;-74
2021/03/24 01:38:53;;;;;;;64.55;24.85;;;3.20;99.90;;;;;;5011253;28;20548;-73
2021/03/24 01:41:20;;;;;;;62.13;22.85;;;3.20;99.90;;;;;;5013246;28;20065;-76
2021/03/24 01:43:46;;;;;;;66.43;24.95;;;3.20;99.90;;;;;;4995141;28;20042;-74
2021/03/24 01:46:18;;;;;;;66.63;24.77;;;3.20;99.90;;;;;;5006940;28;20025;-73
2021/03/24 01:48:56;;;;;;;66.40;24.70;;;3.20;99.90;;;;;;4999367;28;20028;-73
2021/03/24 01:51:29;;;;;;;76.70;26.07;;;3.20;99.90;;;;;;5028075;23;20097;-72
2021/03/24 01:53:56;;;;;;;63.53;21.92;;;3.20;99.90;;;;;;4997256;28;20061;-71
2021/03/24 01:56:23;;;;;;;62.55;23.88;;;3.20;99.90;;;;;;5015410;28;20018;-72
2021/03/24 01:58:48;;;;;;;66.38;24.17;;;3.20;99.90;;;;;;5015423;28;20030;-73
2021/03/24 02:01:17;;;;;;;65.80;24.08;;;3.10;99.90;;;;;;5018113;28;20518;-71
2021/03/24 02:03:44;;;;;;;62.63;23.92;;;3.10;99.90;;;;;;4997248;28;20025;-74
2021/03/24 02:06:30;;;;;;;61.15;24.50;;;3.10;99.90;;;;;;4997811;28;20033;-72
2021/03/24 02:09:09;;;;;;;61.30;24.63;;;3.10;99.90;;;;;;5005245;28;20395;-72
2021/03/24 02:11:44;;;;;;;56.75;21.02;;;3.10;99.90;;;;;;5033633;28;20026;-72
2021/03/24 02:14:28;;;;;;;70.90;23.17;;;3.10;99.90;;;;;;5029198;28;20518;-72
2021/03/24 02:16:55;;;;;;;67.13;24.95;;;3.10;99.90;;;;;;5015969;28;20045;-72
2021/03/24 02:19:26;;;;;;;63.47;25.10;;;3.10;99.90;;;;;;5024601;28;20026;-72
2021/03/24 02:21:53;;;;;;;60.00;22.55;;;3.10;99.90;;;;;;5024819;28;20018;-72
2021/03/24 02:24:39;;;;;;;67.20;24.70;;;3.10;99.90;;;;;;5031448;28;20568;-73
2021/03/24 02:27:17;;;;;;;59.03;22.63;;;3.10;99.90;;;;;;5033819;28;20050;-72
2021/03/24 02:30:06;;;;;;;61.13;23.13;;;3.00;99.90;;;;;;5033433;28;20026;-73
2021/03/24 02:32:35;;;;;;;60.08;24.05;;;3.00;99.90;;;;;;5004754;28;20022;-72
2021/03/24 02:35:06;;;;;;;59.63;23.63;;;3.00;99.90;;;;;;5025075;28;20386;-72
2021/03/24 02:37:34;;;;;;;71.32;25.52;;;3.00;99.90;;;;;;5012546;28;20022;-72
2021/03/24 02:40:04;;;;;;;65.03;24.20;;;2.90;99.90;;;;;;5021501;28;20030;-72
2021/03/24 02:42:30;;;;;;;61.22;22.92;;;2.90;99.90;;;;;;5033747;28;20057;-72
2021/03/24 02:44:56;;;;;;;58.50;24.38;;;2.90;99.90;;;;;;5020171;28;20542;-71
2021/03/24 02:47:23;;;;;;;67.75;23.75;;;2.90;99.90;;;;;;5014326;28;20105;-74
2021/03/24 02:49:49;;;;;;;69.97;24.55;;;2.90;99.90;;;;;;4997027;28;20207;-71
2021/03/24 02:52:15;;;;;;;64.97;25.15;;;2.90;99.90;;;;;;5014853;28;20465;-74
2021/03/24 02:54:43;;;;;;;64.60;24.75;;;2.90;99.90;;;;;;4996984;28;20052;-73
2021/03/24 02:57:09;;;;;;;66.75;25.88;;;2.90;99.90;;;;;;4996022;28;20030;-74
2021/03/24 02:59:35;;;;;;;62.67;24.10;;;2.90;99.90;;;;;;5014123;28;20080;-72
2021/03/24 03:02:19;;;;;;;57.25;23.38;;;2.90;99.90;;;;;;5016544;28;20459;-74
2021/03/24 03:04:51;;;;;;;59.47;22.50;;;2.80;99.90;;;;;;5032402;28;20045;-72
2021/03/24 03:07:51;;;;;;;56.72;22.98;;;2.80;99.90;;;;;;5030518;28;20029;-75
2021/03/24 03:10:25;;;;;;;64.57;22.77;;;2.70;99.90;;;;;;5014810;23;20407;-74
2021/03/24 03:13:02;;;;;;;61.10;25.08;;;2.70;99.90;;;;;;5059372;23;20068;-73
2021/03/24 03:15:42;;;;;;;63.65;23.67;;;2.60;99.90;;;;;;5057806;28;20036;-74
2021/03/24 03:18:14;;;;;;;59.40;23.30;;;2.60;99.90;;;;;;5038615;28;20022;-73
2021/03/24 03:20:45;;;;;;;56.53;22.77;;;2.60;99.90;;;;;;5049909;23;20052;-74
2021/03/24 03:23:18;;;;;;;63.03;23.52;;;2.60;99.90;;;;;;5029737;28;20045;-74
2021/03/24 03:25:52;;;;;;;53.55;22.75;;;2.50;99.90;;;;;;5020921;28;20036;-74
2021/03/24 03:28:18;;;;;;;64.97;22.92;;;2.50;99.90;;;;;;5018044;28;20033;-74
2021/03/24 03:30:50;;;;;;;58.28;22.00;;;2.50;99.90;;;;;;5029322;28;20030;-75
2021/03/24 03:33:21;;;;;;;58.97;24.02;;;2.40;99.90;;;;;;5016273;28;20026;-74
2021/03/24 03:35:46;;;;;;;59.85;22.95;;;2.40;99.90;;;;;;5017538;28;20022;-74
2021/03/24 03:38:17;;;;;;;62.25;24.38;;;2.40;99.90;;;;;;5017064;28;20109;-74
2021/03/24 03:40:45;;;;;;;62.38;24.65;;;2.40;99.90;;;;;;5017844;28;20029;-74
2021/03/24 03:43:15;;;;;;;51.60;18.85;;;2.40;99.90;;;;;;5017416;28;20068;-74
2021/03/24 03:45:43;;;;;;;66.13;24.35;;;2.40;99.90;;;;;;5029870;28;20030;-74
2021/03/24 03:48:12;;;;;;;58.35;23.33;;;2.40;99.90;;;;;;5034751;28;20037;-74
2021/03/24 03:50:39;;;;;;;67.85;24.88;;;2.40;99.90;;;;;;5036559;28;20045;-74
2021/03/24 03:53:04;;;;;;;58.83;23.83;;;2.50;99.90;;;;;;5036261;28;20132;-74
2021/03/24 03:55:38;;;;;;;66.30;24.38;;;2.50;99.90;;;;;;5036988;28;20018;-74
2021/03/24 03:58:11;;;;;;;70.88;26.48;;;2.40;99.90;;;;;;5037941;28;20147;-74
2021/03/24 04:01:09;;;;;;;68.30;24.30;;;2.40;99.90;;;;;;5037008;28;20056;-74
2021/03/24 04:03:54;;;;;;;62.88;25.20;;;2.40;99.90;;;;;;5036484;28;20085;-74
2021/03/24 04:06:29;;;;;;;62.90;23.75;;;2.40;99.90;;;;;;5033034;28;20022;-74
2021/03/24 04:08:56;;;;;;;63.72;23.90;;;2.40;99.90;;;;;;5033905;28;20083;-74
2021/03/24 04:11:24;;;;;;;67.63;24.77;;;2.50;99.90;;;;;;5027896;28;20114;-73
2021/03/24 04:13:55;;;;;;;62.15;24.05;;;2.40;99.90;;;;;;5023765;28;20348;-73
2021/03/24 04:16:22;;;;;;;68.53;25.35;;;2.40;99.90;;;;;;5026575;28;20029;-72
2021/03/24 04:18:54;;;;;;;60.53;23.95;;;2.40;99.90;;;;;;5035690;28;20033;-73
2021/03/24 04:21:22;;;;;;;68.43;25.77;;;2.40;99.90;;;;;;5057192;23;20034;-72
2021/03/24 04:23:58;;;;;;;65.65;24.73;;;2.40;99.90;;;;;;4983926;28;20037;-73
2021/03/24 04:26:33;;;;;;;62.88;24.67;;;2.40;99.90;;;;;;5016507;23;20049;-74
2021/03/24 04:29:09;;;;;;;58.25;23.17;;;2.40;99.90;;;;;;5003825;28;20045;-73
2021/03/24 04:31:38;;;;;;;72.85;24.63;;;2.40;99.90;;;;;;5011716;28;20034;-74
2021/03/24 04:34:03;;;;;;;62.65;23.65;;;2.40;99.90;;;;;;5001783;28;20080;-72
2021/03/24 04:36:39;;;;;;;62.40;23.13;;;2.40;99.90;;;;;;5014077;28;20437;-75
2021/03/24 04:39:19;;;;;;;58.00;23.63;;;2.50;99.90;;;;;;5003686;28;20097;-74
2021/03/24 04:41:46;;;;;;;57.90;22.73;;;2.40;99.90;;;;;;5000351;28;20062;-73
2021/03/24 04:44:26;;;;;;;62.85;22.88;;;2.40;99.90;;;;;;5001744;28;20026;-73
2021/03/24 04:46:55;;;;;;;62.72;25.08;;;2.40;99.90;;;;;;5016961;28;20395;-72
2021/03/24 04:49:25;;;;;;;58.03;21.50;;;2.40;99.90;;;;;;5004967;28;20109;-74
2021/03/24 04:51:51;;;;;;;;;;;2.30;99.90;;;;;;4998046;28;20022;-73
2021/03/24 04:54:20;;;;;;;61.45;23.27;;;2.30;99.90;;;;;;5000424;28;20314;-73
2021/03/24 04:56:48;;;;;;;;;;;2.30;99.90;;;;;;5015807;28;20026;-74
2021/03/24 04:59:24;;;;;;;64.55;23.73;;;2.40;99.90;;;;;;5012243;28;20355;-73
2021/03/24 05:01:55;;;;;;;59.78;22.92;;;2.30;99.90;;;;;;5002863;28;20425;-73
2021/03/24 05:04:30;;;;;;;59.10;23.02;;;2.30;99.90;;;;;;5015129;28;20292;-74
2021/03/24 05:07:06;;;;;;;57.22;22.20;;;2.30;99.90;;;;;;5014820;28;20476;-73
2021/03/24 05:09:32;;;;;;;70.15;23.98;;;2.20;99.90;;;;;;5007217;28;20022;-74
2021/03/24 05:12:19;;;;;;;64.35;24.20;;;2.20;99.90;;;;;;5014575;28;20048;-73
2021/03/24 05:15:03;;;;;;;63.13;23.35;;;2.20;99.90;;;;;;5002817;28;20057;-74
2021/03/24 05:17:38;;;;;;;64.95;23.85;;;2.20;99.90;;;;;;5014963;28;20021;-73
2021/03/24 05:20:44;;;;;;;62.75;24.08;;;2.20;99.90;;;;;;5015164;28;20029;-74
2021/03/24 05:23:15;;;;;;;66.80;23.88;;;2.10;99.90;;;;;;5014566;28;20026;-74
2021/03/24 05:25:44;;;;;;;64.05;24.67;;;2.20;99.90;;;;;;5004303;28;20548;-74
2021/03/24 05:28:22;;;;;;;56.47;23.15;;;2.10;99.90;;;;;;5002665;28;20026;-72
2021/03/24 05:30:54;;;;;;;56.33;21.25;;;2.10;99.90;;;;;;5007826;28;20064;-72
2021/03/24 05:33:24;;;;;;;66.15;25.25;;;2.10;99.90;;;;;;4996263;28;20388;-72
2021/03/24 05:36:07;;;;;;;67.63;23.65;;;2.10;99.90;;;;;;5005900;28;20022;-72
2021/03/24 05:38:39;;;;;;;60.23;23.63;;;2.10;99.90;;;;;;5012795;23;20030;-73
2021/03/24 05:41:20;;;;;;;66.22;24.13;;;2.10;99.90;;;;;;5041701;23;20050;-73
2021/03/24 05:43:52;;;;;;;63.78;23.30;;;2.10;99.90;;;;;;5035489;28;20025;-72
2021/03/24 05:46:54;;;;;;;60.15;24.08;;;2.10;99.90;;;;;;5037105;28;20022;-74
2021/03/24 05:50:04;;;;;;;58.97;23.48;;;2.00;99.90;;;;;;5016977;28;20029;-73
2021/03/24 05:52:56;;;;;;;63.88;24.48;;;2.10;99.90;;;;;;4945271;28;20112;-74
2021/03/24 05:55:33;;;;;;;56.75;23.17;;;2.20;99.90;;;;;;4988655;28;20034;-73
2021/03/24 05:58:22;;;;;;;71.07;23.25;;;2.20;99.90;;;;;;4998473;28;20406;-73
2021/03/24 06:01:14;;;;;;;71.93;23.88;;;2.20;99.90;;;;;;5016582;28;20056;-75
2021/03/24 06:03:58;;;;;;;59.15;23.65;;;2.20;99.90;;;;;;5046589;23;20052;-72
2021/03/24 06:06:39;;;;;;;63.58;23.67;;;2.20;99.90;;;;;;5032792;28;20021;-73
2021/03/24 06:09:49;;;;;;;64.25;24.38;;;2.30;99.90;;;;;;5011915;28;20092;-73
2021/03/24 06:12:32;;;;;;;59.20;23.40;;;2.30;99.90;;;;;;4991122;28;20038;-73
2021/03/24 06:15:00;;;;;;;61.83;23.17;;;2.30;99.90;;;;;;4977912;28;20018;-72
2021/03/24 06:17:40;;;;;;;64.15;24.67;;;2.30;99.90;;;;;;4995780;28;20026;-73
2021/03/24 06:20:30;;;;;;;64.35;24.25;;;2.40;99.90;;;;;;4995110;28;20105;-73
2021/03/24 06:23:25;;;;;;;59.97;24.23;;;2.50;99.90;;;;;;5000438;28;20061;-73
2021/03/24 06:26:04;;;;;;;64.25;24.45;;;2.50;99.90;;;;;;5014357;28;20029;-71
2021/03/24 06:29:07;;;;;;;77.53;25.67;;;2.60;99.90;;;;;;5001587;28;20030;-71
2021/03/24 06:31:39;;;;;;;69.72;25.67;;;2.70;99.90;;;;;;4915474;29;20083;-72
2021/03/24 06:34:27;;;;;;;67.20;24.48;;;2.80;99.90;;;;;;4999817;28;20046;-71
2021/03/24 06:37:30;;;;;;;63.70;24.90;;;2.90;99.90;;;;;;5003035;28;20379;-71
2021/03/24 06:40:16;;;;;;;70.72;26.42;;;3.00;99.90;;;;;;5008797;28;20033;-72
2021/03/24 06:43:25;;;;;;;72.88;27.25;;;3.10;99.90;;;;;;5001104;28;20031;-72
2021/03/24 06:46:28;;;;;;;69.32;25.50;;;3.30;99.90;;;;;;5001679;28;20019;-72
2021/03/24 06:49:09;;;;;;;69.13;26.17;;;3.40;99.90;;;;;;4999580;28;20022;-71
2021/03/24 06:52:10;;;;;;;72.28;26.40;;;3.50;99.90;;;;;;4999961;28;20041;-73
2021/03/24 06:54:44;;;;;;;68.43;26.65;;;3.70;99.90;;;;;;4998952;28;20105;-73
2021/03/24 06:57:34;;;;;;;75.47;28.05;;;3.80;99.90;;;;;;5025371;23;20045;-73
2021/03/24 07:00:24;;;;;;;78.85;27.88;;;3.90;99.90;;;;;;5039998;28;20025;-70
2021/03/24 07:03:30;;;;;;;76.85;28.58;;;4.10;99.90;;;;;;5038228;28;20141;-74
2021/03/24 07:06:22;;;;;;;75.38;28.13;;;4.30;99.90;;;;;;5040913;28;20017;-74
2021/03/24 07:09:18;;;;;;;74.43;26.77;;;4.40;99.90;;;;;;5037459;28;20032;-73
2021/03/24 07:12:06;;;;;;;73.90;28.02;;;4.60;99.90;;;;;;5038569;28;20021;-74
2021/03/24 07:15:01;;;;;;;71.50;27.55;;;4.70;99.90;;;;;;5039461;28;20483;-77
2021/03/24 07:18:03;;;;;;;72.53;27.65;;;4.90;99.90;;;;;;5039393;28;20044;-73
2021/03/24 07:20:58;;;;;;;76.18;27.50;;;5.00;99.90;;;;;;5039031;28;20479;-75
2021/03/24 07:23:36;;;;;;;71.28;28.40;;;5.20;99.90;;;;;;5036701;28;20032;-77
2021/03/24 07:26:16;;;;;;;79.07;28.25;;;5.30;99.90;;;;;;5036543;28;20026;-76
2021/03/24 07:28:54;;;;;;;74.95;29.50;;;5.40;99.90;;;;;;5037184;28;20437;-76
2021/03/24 07:31:28;;;;;;;81.30;27.83;;;5.50;99.90;;;;;;5036787;28;20029;-75
2021/03/24 07:34:09;;;;;;;71.15;27.15;;;5.60;99.90;;;;;;5044399;23;20041;-77
2021/03/24 07:37:00;;;;;;;77.57;29.77;;;5.70;99.90;;;;;;5015659;28;20025;-76
2021/03/24 07:39:32;;;;;;;76.88;27.85;;;5.90;99.90;;;;;;5036920;28;20025;-78
2021/03/24 07:42:43;;;;;;;74.97;30.42;;;6.00;99.90;;;;;;5036494;28;20125;-79
2021/03/24 07:45:24;;;;;;;75.80;29.73;;;6.10;99.90;;;;;;5020961;28;20502;-76
2021/03/24 07:48:29;;;;;;;76.82;29.23;;;6.30;99.90;;;;;;5036028;28;20471;-75
2021/03/24 07:51:16;;;;;;;69.15;26.02;;;6.40;99.90;;;;;;5004222;28;20038;-76
2021/03/24 07:53:53;;;;;;;92.38;26.30;;;6.60;99.90;;;;;;5062837;23;20510;-76
2021/03/24 07:56:40;;;;;;;71.35;27.45;;;4.70;99.90;;;;;;5078482;23;20049;-75
2021/03/24 07:59:14;;;;;;;66.32;26.00;;;7.00;99.90;;;;;;5015799;28;20141;-74
2021/03/24 08:02:22;;;;;;;63.47;26.02;;;7.10;99.90;;;;;;4982613;28;20042;-76
2021/03/24 08:05:20;;;;;;;76.47;27.83;;;7.20;99.90;;;;;;4999718;28;20026;-75
2021/03/24 08:07:48;;;;;;;82.03;27.13;;;7.30;99.90;;;;;;4988782;28;20038;-77
2021/03/24 08:10:20;;;;;;;65.72;26.33;;;7.50;99.90;;;;;;4987812;28;20077;-76
2021/03/24 08:13:10;;;;;;;62.72;26.65;;;7.60;99.90;;;;;;5011717;28;20044;-77
2021/03/24 08:16:03;;;;;;;66.30;27.55;;;7.70;99.90;;;;;;4996964;28;20034;-77
2021/03/24 08:18:58;;;;;;;67.50;27.30;;;7.80;99.90;;;;;;4943246;28;20093;-77
2021/03/24 08:21:57;;;;;;;72.50;27.23;;;8.00;99.90;;;;;;5016738;28;20022;-77
2021/03/24 08:24:53;;;;;;;66.30;26.25;;;8.10;99.90;;;;;;4998820;28;20044;-77
2021/03/24 08:27:22;;;;;;;62.45;25.30;;;8.30;99.90;;;;;;4997734;28;20034;-77
2021/03/24 08:30:00;;;;;;;58.70;23.02;;;8.40;99.90;;;;;;4999381;28;20462;-79
2021/03/24 08:32:47;;;;;;;64.55;23.52;;;8.60;99.90;;;;;;4998875;28;20021;-77
2021/03/24 08:35:35;;;;;;;56.45;23.30;;;8.70;99.90;;;;;;5018088;23;20053;-78
2021/03/24 08:38:33;;;;;;;54.55;22.88;;;8.80;99.90;;;;;;4998488;28;20030;-77
2021/03/24 08:41:19;;;;;;;59.30;22.85;;;8.90;99.90;;;;;;5015996;28;20407;-77
2021/03/24 08:44:04;;;;;;;59.50;23.17;;;9.00;99.90;;;;;;5055230;23;20049;-78
2021/03/24 08:47:05;;;;;;;56.05;20.08;;;9.50;99.90;;;;;;5025929;28;20171;-78
2021/03/24 08:49:34;;;;;;;55.45;22.08;;;9.10;99.90;;;;;;4928544;29;20096;-76
2021/03/24 08:52:07;;;;;;;52.63;22.35;;;9.30;99.90;;;;;;4984317;28;20120;-76
2021/03/24 08:54:50;;;;;;;61.90;21.23;;;9.50;99.90;;;;;;5000177;28;20036;-78
2021/03/24 08:57:31;;;;;;;55.53;21.67;;;9.60;99.90;;;;;;5015308;28;20026;-77
2021/03/24 09:00:24;;;;;;;58.47;22.45;;;9.60;99.90;;;;;;5016462;28;20065;-77
2021/03/24 09:03:23;;;;;;;49.55;21.10;;;9.70;99.90;;;;;;5041047;23;20448;-90
2021/03/24 09:06:33;;;;;;;50.10;20.50;;;9.80;99.90;;;;;;5044426;28;20020;-93
2021/03/24 09:09:09;;;;;;;53.10;20.80;;;10.30;99.90;;;;;;5045018;28;20040;-88
2021/03/24 09:12:00;;;;;;;54.03;21.63;;;10.00;99.70;;;;;;5067125;28;20049;-88
2021/03/24 09:14:43;;;;;;;53.97;20.88;;;10.10;99.70;;;;;;5041755;28;20021;-87
2021/03/24 09:17:47;;;;;;;56.13;19.80;;;10.20;98.30;;;;;;5038674;28;20030;-91
2021/03/24 09:20:40;;;;;;;48.03;19.02;;;10.30;97.60;;;;;;5035816;28;20014;-88
2021/03/24 09:23:28;;;;;;;46.45;18.48;;;10.50;96.30;;;;;;5034985;28;20490;-86
2021/03/24 09:26:31;;;;;;;48.95;20.25;;;10.60;95.10;;;;;;5031213;28;20116;-90
2021/03/24 09:29:16;;;;;;;52.40;20.60;;;10.70;94.10;;;;;;5025341;28;20029;-88
2021/03/24 09:32:02;;;;;;;42.17;17.65;;;10.80;94.30;;;;;;5031271;28;20018;-87
2021/03/24 09:34:43;;;;;;;47.83;18.67;;;10.80;91.60;;;;;;5015851;28;20033;-86
2021/03/24 09:37:20;;;;;;;43.85;18.35;;;10.80;91.00;;;;;;5014251;28;20026;-87
2021/03/24 09:39:55;;;;;;;38.92;17.63;;;10.90;91.50;;;;;;5015171;28;20494;-88
2021/03/24 09:42:39;;;;;;;42.65;18.80;;;10.90;91.50;;;;;;5015093;28;20037;-88
2021/03/24 09:45:14;;;;;;;45.17;19.17;;;12.70;91.40;;;;;;5014904;28;20022;-87
2021/03/24 09:47:59;;;;;;;42.05;18.60;;;11.00;91.10;;;;;;5014537;28;20049;-86
2021/03/24 09:50:57;;;;;;;45.38;18.52;;;11.10;92.40;;;;;;5014079;28;20022;-88
2021/03/24 09:53:26;;;;;;;42.80;17.70;;;11.40;90.10;;;;;;5014419;28;20026;-87
2021/03/24 09:56:06;;;;;;;42.92;18.58;;;11.20;89.80;;;;;;5014186;28;20073;-86
2021/03/24 09:58:44;;;;;;;43.70;18.60;;;11.60;86.00;;;;;;5015473;28;20050;-89
2021/03/24 10:01:34;;;;;;;44.83;19.97;;;14.80;88.90;;;;;;5016061;28;20025;-88
2021/03/24 10:04:19;;;;;;;44.45;19.25;;;11.90;89.80;;;;;;5013944;28;20081;-87
2021/03/24 10:07:13;;;;;;;47.13;19.35;;;12.20;87.70;;;;;;5014507;28;20084;-88
2021/03/24 10:10:01;;;;;;;46.53;18.08;;;12.30;85.60;;;;;;5016057;28;20028;-88
2021/03/24 10:12:53;;;;;;;54.42;20.58;;;12.10;84.70;;;;;;5041695;28;20063;-88
2021/03/24 10:15:25;;;;;;;42.03;18.83;;;12.10;84.80;;;;;;5054057;28;20482;-88
2021/03/24 10:18:22;;;;;;;48.25;18.58;;;12.00;85.30;;;;;;5036710;28;20030;-88
2021/03/24 10:20:50;;;;;;;43.92;18.98;;;12.00;86.00;;;;;;5035409;28;20036;-86
2021/03/24 10:23:34;;;;;;;41.28;19.20;;;12.00;84.20;;;;;;5050874;28;20492;-86
2021/03/24 10:26:30;;;;;;;46.42;19.73;;;12.00;86.20;;;;;;5049011;28;20025;-86
2021/03/24 10:28:59;;;;;;;52.97;20.20;;;12.20;87.00;;;;;;5014159;28;20058;-87
2021/03/24 10:31:31;;;;;;;39.38;18.73;;;12.50;86.20;;;;;;5014646;28;20022;-87
2021/03/24 10:34:06;;;;;;;42.13;17.80;;;14.60;85.90;;;;;;5014938;28;20030;-85
2021/03/24 10:36:41;;;;;;;40.67;17.17;;;12.70;80.90;;;;;;5016885;28;20096;-87
2021/03/24 10:39:18;;;;;;;43.45;18.02;;;15.40;83.70;;;;;;5054225;28;20036;-87
2021/03/24 10:42:11;;;;;;;39.15;17.33;;;12.60;80.10;;;;;;5039425;28;20025;-88
2021/03/24 10:44:43;;;;;;;44.38;16.63;;;12.60;78.90;;;;;;5068857;28;20044;-86
2021/03/24 10:47:43;;;;;;;51.58;18.67;;;13.80;81.10;;;;;;5036376;28;20457;-88
2021/03/24 10:50:30;;;;;;;37.28;17.52;;;12.40;81.10;;;;;;5045027;28;20090;-88
2021/03/24 10:52:58;;;;;;;45.42;19.00;;;12.60;82.30;;;;;;5055103;28;20022;-86
2021/03/24 10:55:26;;;;;;;42.13;16.67;;;13.50;82.80;;;;;;5072051;28;20079;-87
2021/03/24 10:57:55;;;;;;;42.15;18.48;;;15.10;80.70;;;;;;5056450;28;20480;-89
2021/03/24 11:00:23;;;;;;;;;;;12.10;79.00;;;;;;5068768;28;20021;-86
2021/03/24 11:03:01;;;;;;;44.17;17.63;;;12.80;79.40;;;;;;5056499;28;19919;-86
2021/03/24 11:05:48;;;;;;;42.47;18.98;;;12.90;79.60;;;;;;5038116;28;20033;-87
2021/03/24 11:08:32;;;;;;;46.42;18.23;;;13.00;78.10;;;;;;5041268;28;20033;-90
2021/03/24 11:11:11;;;;;;;42.35;17.48;;;13.20;79.20;;;;;;5035230;28;20021;-88
2021/03/24 11:13:49;;;;;;;;;;;13.20;74.70;;;;;;5046137;28;20036;-87
2021/03/24 11:16:20;;;;;;;40.13;16.60;;;13.20;76.40;;;;;;5057583;28;19908;-86
2021/03/24 11:18:55;;;;;;;49.83;19.17;;;13.20;77.20;;;;;;5041635;28;20029;-85
2021/03/24 11:21:33;;;;;;;42.20;17.83;;;13.40;76.50;;;;;;5044758;28;20029;-87
2021/03/24 11:24:26;;;;;;;45.53;18.60;;;13.70;78.30;;;;;;5027817;28;20098;-88
2021/03/24 11:27:29;;;;;;;51.10;19.58;;;14.20;76.00;;;;;;5025250;28;20026;-86
2021/03/24 11:30:25;;;;;;;46.03;17.15;;;14.40;74.30;;;;;;5026339;28;20038;-87
2021/03/24 11:32:51;;;;;;;41.83;18.60;;;14.10;73.70;;;;;;5024743;28;20026;-87
2021/03/24 11:35:46;;;;;;;52.42;21.65;;;14.00;73.20;;;;;;5040838;28;20057;-86
2021/03/24 11:38:46;;;;;;;38.38;16.75;;;14.80;73.40;;;;;;5040615;28;20022;-86
2021/03/24 11:41:18;;;;;;;43.83;17.15;;;14.30;69.00;;;;;;5035710;28;20494;-86
2021/03/24 11:43:53;;;;;;;42.58;17.77;;;15.10;72.40;;;;;;5025161;28;20021;-86
2021/03/24 11:46:30;;;;;;;45.90;17.33;;;18.10;75.20;;;;;;5040511;28;20108;-87
2021/03/24 11:49:11;;;;;;;50.20;18.30;;;14.90;68.90;;;;;;5040609;28;20022;-86
2021/03/24 11:51:57;;;;;;;38.83;17.77;;;14.60;70.30;;;;;;5040191;28;20056;-87
2021/03/24 11:54:37;;;;;;;43.25;17.50;;;14.00;71.40;;;;;;5040715;28;20031;-86
2021/03/24 11:57:22;;;;;;;37.70;16.35;;;14.40;71.20;;;;;;5040883;28;20390;-85
2021/03/24 12:00:14;;;;;;;37.03;16.17;;;14.80;67.70;;;;;;5040066;28;20033;-86
2021/03/24 12:03:04;;;;;;;31.75;13.75;;;14.80;68.90;;;;;;5038761;28;20045;-86
2021/03/24 12:08:38;;;;;;;;;;;15.30;66.50;;;;;;5025870;28;20038;-87
2021/03/24 12:11:19;;;;;;;36.78;14.63;;;15.40;68.80;;;;;;5056743;28;19919;-87
2021/03/24 12:13:45;;;;;;;40.03;16.27;;;15.10;66.10;;;;;;5051277;28;20029;-87
2021/03/24 12:16:19;;;;;;;41.20;14.85;;;15.10;66.80;;;;;;5047653;28;20028;-88
2021/03/24 12:18:55;;;;;;;29.25;12.57;;;15.30;65.10;;;;;;5018938;28;20061;-87
2021/03/24 12:21:35;;;;;;;33.42;13.18;;;15.20;63.80;;;;;;5039329;28;20015;-88
2021/03/24 12:24:34;;;;;;;35.67;15.75;;;15.00;63.60;;;;;;5064054;28;20021;-84
2021/03/24 12:27:15;;;;;;;37.10;14.88;;;15.10;65.00;;;;;;5063246;28;20064;-86
2021/03/24 12:30:16;;;;;;;34.45;14.90;;;14.90;65.40;;;;;;5087854;28;20033;-86
2021/03/24 12:32:42;;;;;;;32.90;12.80;;;15.30;67.00;;;;;;5058833;28;20021;-86
2021/03/24 12:35:27;;;;;;;36.03;13.85;;;15.60;65.00;;;;;;5065798;28;20033;-87
2021/03/24 12:38:00;;;;;;;34.38;13.93;;;15.70;65.20;;;;;;5052489;28;20073;-87
2021/03/24 12:40:26;;;;;;;30.42;13.52;;;16.80;64.30;;;;;;5050550;28;20036;-86
2021/03/24 12:43:07;;;;;;;26.15;12.43;;;15.60;63.80;;;;;;5056187;28;20040;-86
2021/03/24 12:45:39;;;;;;;35.90;13.30;;;15.80;65.10;;;;;;5051065;28;20096;-86
2021/03/24 12:48:06;;;;;;;25.45;11.48;;;16.20;62.60;;;;;;5051167;28;20485;-85
2021/03/24 12:50:36;;;;;;;28.73;12.05;;;16.40;63.00;;;;;;5056856;28;20025;-85
2021/03/24 12:53:31;;;;;;;28.40;11.80;;;16.50;59.50;;;;;;5052611;28;20024;-85
2021/03/24 12:56:18;;;;;;;27.73;12.65;;;16.30;60.80;;;;;;5039630;28;20033;-85
2021/03/24 12:58:49;;;;;;;30.97;11.20;;;16.20;59.80;;;;;;5089942;28;20028;-86
2021/03/24 13:01:29;;;;;;;28.63;10.95;;;15.90;60.90;;;;;;5074607;28;20044;-85
2021/03/24 13:04:07;;;;;;;24.58;11.13;;;15.90;63.90;;;;;;5039872;28;20052;-86
2021/03/24 13:06:47;;;;;;;27.20;10.48;;;16.10;61.20;;;;;;5041242;28;20029;-86
2021/03/24 13:09:38;;;;;;;28.13;11.55;;;16.30;61.00;;;;;;5049992;28;20055;-85
2021/03/24 13:12:20;;;;;;;25.58;10.95;;;16.20;61.20;;;;;;5059267;28;20056;-86
2021/03/24 13:15:05;;;;;;;26.73;11.07;;;17.60;61.10;;;;;;5048475;28;20183;-85
2021/03/24 13:17:52;;;;;;;36.67;12.52;;;17.30;60.30;;;;;;5057966;28;20021;-86
2021/03/24 13:20:45;;;;;;;26.08;11.73;;;19.60;62.30;;;;;;5023995;28;20014;-86
2021/03/24 13:27:16;;;;;;;30.52;12.65;;;15.60;59.50;;;;;;5020772;28;20029;-87
2021/03/24 13:30:30;;;;;;;27.00;12.07;;;16.60;60.90;;;;;;5054259;28;20029;-86
2021/03/24 13:33:27;;;;;;;20.65;8.93;;;18.20;61.50;;;;;;5077002;28;20044;-87
2021/03/24 13:36:06;;;;;;;28.00;9.98;;;16.90;59.40;;;;;;5051615;28;20044;-87
2021/03/24 13:38:52;;;;;;;27.15;11.73;;;20.00;60.50;;;;;;5055888;28;20393;-86
2021/03/24 13:41:21;;;;;;;21.52;10.55;;;16.10;60.40;;;;;;5072375;28;20033;-85